Station: Gluepot

  Atmospheric Gas Attenuation - ITU Rec 676-11   --------------- db/100km ---------------
Date Time Temp RH % AH g/m3 Dew Point Wind Direction Speed kph Gust kph Barometer mB Rainfall Since 9am 24GHz 47GHz 76GHz 122GHz 134GHz 241GHz
16 09:00 7.5 80 6.41 4.3 0 1013.1 0 15.2 24.1 33.9 88.7 76.5 261.0
14 09:00 4.4 100 6.53 4.4 0 1013.1 0 15.6 25.2 35.8 93.6 81.3 277.4
13 09:00 7.1 100 7.8 7.1 2 1013.1 0.2 18.2 26.5 39.9 104.6 95.9 329.0
12 09:00 8.5 100 8.54 8.5 0 1013.1 2 19.7 27.4 42.3 111.1 104.6 359.3
11 09:00 9.5 95 8.65 8.7 0 1013.1 5 19.9 27.3 42.2 110.9 104.7 360.1
10 09:00 6.4 79 5.89 3.1 0 1013.1 0 14.1 23.6 32.3 84.3 70.7 240.5
09 09:00 3.1 100 5.99 3.1 0 1013.1 0 14.4 24.6 34.1 89.1 75.2 255.7
08 09:00 7.5 81 6.49 4.5 0 1013.1 0 15.3 24.2 34.2 89.5 77.6 264.7
07 09:00 11.1 99 9.97 10.9 0 1013.1 0 22.7 29.0 47.0 123.7 121.2 417.7
06 09:00 9.5 70 6.37 4.3 2 1013.1 0 15.0 23.5 32.9 86.1 74.1 252.7
05 09:00 11.2 80 8.11 7.9 0 1013.1 0.4 18.7 25.8 39.1 102.6 95.1 326.6
04 09:00 8.5 86 7.35 6.3 0 1013.1 1 17.2 25.4 37.3 97.7 88.1 301.5
03 09:00 10 75 7.05 5.9 7 1013.1 0 16.4 24.5 35.4 92.6 82.4 282.0
02 09:00 11 73 7.31 6.3 4 1013.1 0 17.0 24.6 36.0 94.2 84.7 290.3
01 09:00 13.4 34 3.95 -2.2 6 1013.1 0 9.7 19.1 22.9 59.2 42.4 142.0
30 09:00 7.9 60 4.93 0.7 4 1013.1 0.1 12.0 21.7 28.0 73.0 57.3 193.5
29 09:00 2.5 91 5.24 1.2 0 1013.1 0 12.8 23.5 31.2 81.5 65.5 221.6
28 09:00 5.3 76 5.27 1.5 0 1013.1 0 12.8 22.9 30.3 78.9 63.6 215.2
27 09:00 6.8 94 7.19 5.9 0 1013.1 0.1 16.9 25.6 37.4 98.1 87.8 300.5
26 09:00 5.4 100 6.98 5.4 0 1013.1 0.1 16.5 25.6 37.2 97.5 86.5 295.6
25 09:00 9 71 6.26 4 0 1013.1 0 14.8 23.5 32.7 85.4 73.1 249.3
24 09:00 9.2 88 7.86 7.3 0 1013.1 0.1 18.2 26.0 39.1 102.4 94.2 323.1
23 09:00 11 81 8.11 7.9 2 1013.1 0.2 18.7 25.9 39.2 102.8 95.4 327.5
22 09:00 11.1 87 8.76 9.1 2 1013.1 2 20.1 27.0 41.8 109.9 104.1 358.0
21 09:00 12.5 77 8.47 8.7 4 1013.1 1 19.4 26.1 39.9 104.8 98.3 338.0
20 09:00 11 77 7.71 7.2 0 1013.1 0 17.8 25.2 37.6 98.5 90.0 308.7
19 09:00 10.4 63 6.07 3.8 2 1013.1 0 14.3 22.8 31.4 82.0 69.4 236.6
18 09:00 9.5 80 7.28 6.3 2 1013.1 0.1 17.0 25.0 36.5 95.7 86.0 294.4
17 09:00 9.5 99 9.01 9.3 0 1013.1 0 20.7 27.9 43.8 115.0 109.8 377.9
16 09:00 12.3 73 7.93 7.6 0 1013.1 0 18.2 25.2 37.8 99.2 91.4 313.8
15 09:00 14.8 61 7.73 7.3 6 1013.1 0 17.7 24.2 35.9 94.1 86.0 295.1
14 09:00 9.5 85 7.74 7.2 0 1013.1 8 17.9 25.7 38.4 100.7 92.2 316.1
13 09:00 11.9 58 6.14 3.9 2 1013.1 0 14.4 22.6 31.1 81.2 69.0 235.2
12 09:00 5.1 86 5.89 2.9 0 1013.1 0 14.1 23.9 32.8 85.8 71.9 244.5
11 09:00 4.1 45 2.88 -6.6 0 1013.1 0 7.7 19.5 21.7 56.0 34.7 113.5
10 09:00 5 45 3.06 -6 0 1013.1 0 8.1 19.6 22.1 57.1 36.4 119.7
09 09:00 2 68 3.78 -3.3 0 1013.1 0 9.7 21.3 25.6 66.5 46.8 155.8
08 09:00 5.1 84 5.75 2.7 0 1013.1 0 13.8 23.7 32.3 84.2 70.0 237.9
07 09:00 6.6 86 6.5 4.5 2 1013.1 0 15.4 24.5 34.7 90.7 78.6 268.3
06 09:00 5.2 89 6.13 3.5 0 1013.1 0 14.7 24.3 33.8 88.3 75.0 255.5
05 09:00 5.3 84 5.83 2.9 0 1013.1 0 14.0 23.8 32.5 84.9 70.9 241.1
04 09:00 4.9 92 6.21 3.7 0 1013.1 0 14.8 24.5 34.2 89.5 76.4 260.3
03 09:00 12 81 8.63 8.8 2 1013.1 0.2 19.7 26.5 40.8 107.2 101.1 347.7
02 09:00 11.2 83 8.41 8.4 4 1013.1 0 19.3 26.3 40.3 105.9 99.2 340.8
01 09:00 10.6 65 6.35 4.4 15 1013.1 0 14.9 23.2 32.4 84.7 72.8 248.3
31 09:00 12.8 73 8.18 8.2 4 1013.1 0 18.7 25.5 38.6 101.2 94.1 323.3
30 09:00 13.4 52 6.05 3.7 7 1013.1 0 14.2 22.1 30.2 78.8 66.6 227.0
29 09:00 10.7 69 6.78 5.2 0 1013.1 0 15.8 23.8 34.0 89.0 78.2 267.2
28 09:00 12.8 68 7.62 7 0 1013.1 0 17.5 24.6 36.4 95.3 86.8 297.7
27 09:00 12.5 64 7.04 5.9 2 1013.1 0.1 16.3 23.8 34.3 89.7 79.7 272.7
26 09:00 9.9 71 6.63 5 2 1013.1 0 15.5 23.8 33.8 88.3 77.0 263.1
24 09:00 10.5 84 8.15 8 2 1013.1 0.6 18.8 26.1 39.6 103.9 96.5 331.5
23 09:00 12.3 97 10.53 11.9 2 1013.1 0.6 23.8 29.6 48.8 128.3 127.3 439.2
22 09:00 12.3 69 7.49 6.9 7 1013.1 0 17.3 24.5 36.1 94.6 85.7 293.7
21 09:00 8.9 76 6.66 4.9 4 1013.1 0.6 15.7 24.1 34.3 89.8 78.4 267.9
20 09:00 12 65 6.93 5.6 4 1013.1 0.4 16.1 23.7 34.1 89.1 78.8 269.6
19 09:00 15.2 59 7.66 7.3 4 1013.1 0 17.5 24.0 35.5 92.9 84.7 290.6
18 09:00 9.2 81 7.24 6.2 0 1013.1 0 16.9 25.0 36.5 95.6 85.8 293.7
17 09:00 10.3 69 6.61 5 0 1013.1 0 15.5 23.7 33.5 87.7 76.4 260.9
16 09:00 6.8 73 5.59 2.4 0 1013.1 0 13.4 23.0 31.0 80.8 66.5 225.6
15 09:00 7.2 74 5.81 2.9 0 1013.1 0 13.9 23.2 31.7 82.7 69.0 234.4
14 09:00 10.3 65 6.23 4 2 1013.1 0.1 14.7 23.1 32.1 83.8 71.5 243.9
13 09:00 12.3 80 8.69 8.9 2 1013.1 0.1 19.9 26.5 40.9 107.4 101.5 349.2
12 09:00 13.5 49 5.73 3 2 1013.1 0 13.5 21.6 29.0 75.6 62.7 213.3
11 09:00 10.4 82 7.9 7.5 0 1013.1 0 18.2 25.7 38.6 101.3 93.3 320.0
08 09:00 15 70 8.98 9.6 2 1013.1 0 20.3 26.2 40.7 106.9 101.9 350.7
07 09:00 18.7 28 4.48 0.1 7 1013.1 0 10.7 18.7 23.2 60.0 45.3 152.7
06 09:00 12.3 63 6.84 5.5 4 1013.1 0 15.9 23.5 33.6 87.8 77.4 264.6
05 09:00 11.3 72 7.35 6.5 4 1013.1 0 17.0 24.6 36.0 94.3 84.9 291.0
04 09:00 8.7 97 8.39 8.3 0 1013.1 0 19.4 27.1 41.6 109.1 102.2 351.0
03 09:00 10.7 83 8.15 8 0 1013.1 0 18.8 26.1 39.5 103.7 96.3 330.6
02 09:00 15.1 77 9.93 11.2 15 1013.1 0.8 22.4 27.7 44.5 117.1 114.4 394.7
01 09:00 11.5 74 7.64 7.1 11 1013.1 1 17.6 25.0 37.1 97.1 88.5 303.5
30 09:00 10.5 81 7.86 7.4 7 1013.1 7 18.2 25.6 38.4 100.7 92.6 317.7
29 09:00 13.8 97 11.56 13.3 2 1013.1 13 25.9 30.9 52.3 137.9 139.6 482.5
28 09:00 12.2 85 9.17 9.7 0 1013.1 0 20.9 27.3 43.0 112.9 108.2 372.6
27 09:00 12.8 85 9.52 10.3 0 1013.1 0 21.6 27.7 44.1 115.9 112.2 386.6
26 09:00 17.4 91 13.49 15.9 0 1013.1 9 29.9 33.1 58.4 154.1 160.9 557.1
25 09:00 16.3 76 10.54 12.1 2 1013.1 0.1 23.6 28.3 46.4 122.0 120.9 417.6
24 09:00 14.5 100 12.44 14.5 0 1013.1 8 27.8 32.3 55.8 147.2 151.3 523.3
23 09:00 19.5 31 5.2 2.2 2 1013.1 0 12.2 19.5 25.2 65.6 52.5 178.0
22 09:00 17 75 10.85 12.5 2 1013.1 0 24.2 28.6 47.2 124.3 124.0 428.6
21 09:00 16 54 7.36 6.9 2 1013.1 0 16.9 23.4 34.0 89.0 80.1 274.7
20 09:00 20.3 61 10.73 12.7 2 1013.1 0 23.8 27.4 44.8 117.9 117.3 405.4
19 09:00 16 59 8.04 8.1 2 1013.1 0 18.3 24.4 36.5 95.8 88.5 304.3
18 09:00 15 68 8.72 9.2 7 1013.1 0 19.8 25.7 39.7 104.1 98.4 338.8
17 09:00 14.5 73 9.08 9.7 6 1013.1 0 20.6 26.5 41.4 108.6 103.8 357.6
16 09:00 21 56 10.26 12.1 11 1013.1 0 22.7 26.4 42.6 112.0 110.2 380.8
15 09:00 22 26 5.05 1.6 6 1013.1 0 11.8 18.8 24.0 62.4 49.3 167.3
14 09:00 20.5 26 4.63 0.6 2 1013.1 0 11.0 18.6 23.1 60.0 45.9 154.9
13 09:00 15.5 45 5.95 3.6 0 1013.1 0 13.9 21.4 29.1 75.8 63.7 217.1
12 09:00 12 59 6.29 4.3 4 1013.1 0 14.7 22.8 31.6 82.6 70.8 241.4
11 09:00 17.5 66 9.84 11.1 15 1013.1 0 22.0 26.8 42.8 112.6 109.7 378.7
10 09:00 17 65 9.4 10.5 4 1013.1 0.1 21.1 26.2 41.3 108.6 104.7 360.9
09 09:00 14 74 8.93 9.5 1013.1 20.3 26.4 41.0 107.7 102.5 352.9
08 09:00 13.5 66 7.72 7.4 2 1013.1 0 17.7 24.6 36.5 95.5 87.3 299.5
07 09:00 15 63 8.08 8.1 2 1013.1 0 18.4 24.7 37.2 97.4 90.2 309.9
06 09:00 16 79 10.76 12.4 0 1013.1 0 24.1 28.8 47.5 124.9 124.4 429.8
05 09:00 16.5 69 9.69 10.9 15 1013.1 0 21.8 26.9 42.8 112.4 109.2 376.6
04 09:00 14 72 8.68 9.1 7 1013.1 2 19.8 26.0 40.0 105.0 99.2 341.3

Last Refresh: 17-Jul-2020 02:36:17

Most of the information presented on this site is sourced from the Bureau of Meteorology.  Copyright in all material sourced from the Bureau of Meteorology resides with the Commonwealth of Australia.